Latest Coastal Weather Observations for Nullarbor

IDS60701

Issued at 6:01 am CST Monday 26 June 2017 (issued every 10 minutes, with the page automatically refreshed every 10 minutes)

About coastal observations | Map of coastal stations | Coastal observations for SA | Marine services | Other Formats
Station Details ID: 018106 Name: NULLARBOR Lat: -31.45 Lon: 130.90 Height: 64.0 m
Data from the previous 72 hours. | See also: Recent months at Nullarbor
Date/Time
CST
Temp
°C
Wind Pressure Rain since
9am
mm
Weather Cloud Vis
km
Sea
Height
m
Swell
Dir  Spd
kts
Gust
kts
hPa Trend Height
m
Period
s
Dir
26/06:00am 6.2 CALM 0 0 1024.1 - 1.6 - Partly cloudy 2 - - - -
26/05:47am 6.8 CALM 0 0 1024.0 - 1.6 - - 4 - - - -
26/05:30am 7.4 CALM 0 0 1024.2 - 1.6 - - 10 - - - -
26/05:00am 6.6 N 4 6 1024.4 - 1.6 - Partly cloudy 10 - - - -
26/04:30am 7.5 ESE 3 5 1024.6 - 1.6 - Partly cloudy 10 - - - -
26/04:00am 7.7 CALM 0 0 1024.7 - 1.6 - Partly cloudy 10 - - - -
26/03:30am 7.8 NNW 5 6 1025.0 - 1.6 - Partly cloudy 10 - - - -
26/03:00am 7.2 NNW 6 7 1024.9 - 1.6 - Cloudy 10 - - - -
26/02:30am 7.4 NW 5 6 1024.4 - 1.6 - Partly cloudy 10 - - - -
26/02:00am 6.8 N 6 7 1024.5 - 1.6 - - 10 - - - -
26/01:30am 9.0 SSW 4 5 1024.5 - 1.6 - - 10 - - - -
26/01:00am 8.9 WSW 5 5 1024.8 - 1.6 - Partly cloudy 10 - - - -
26/12:30am 8.6 WSW 6 8 1025.1 - 1.6 - Partly cloudy 10 - - - -
26/12:00am 8.1 CALM 0 3 1025.3 - 1.6 - Partly cloudy 10 - - - -
 
Date/Time
CST
Temp
°C
Wind Pressure Rain since
9am
mm
Weather Cloud Vis
km
Sea
Height
m
Swell
Dir  Spd
kts
Gust
kts
hPa Trend Height
m
Period
s
Dir
25/11:30pm 8.9 SW 3 4 1025.3 - 1.6 - Partly cloudy 10 - - - -
25/11:00pm 9.4 S 4 6 1025.2 - 1.6 - Partly cloudy 10 - - - -
25/10:30pm 9.1 S 5 6 1025.1 - 1.6 - - 10 - - - -
25/10:00pm 10.2 WSW 3 4 1025.2 - 1.6 - - 10 - - - -
25/09:30pm 7.6 E 4 5 1025.2 - 1.6 - - 10 - - - -
25/09:00pm 10.3 SSW 3 4 1025.0 - 1.6 - Mostly clear 10 - - - -
25/08:30pm 10.3 S 3 4 1025.0 - 1.6 - Partly cloudy 10 - - - -
25/08:00pm 10.8 SSW 5 6 1024.7 - 1.6 - Partly cloudy 10 - - - -
25/07:30pm 10.8 WSW 5 5 1024.4 - 1.6 - Partly cloudy 10 - - - -
25/07:00pm 11.1 SSE 5 5 1024.2 - 1.6 - - 10 - - - -
25/06:30pm 11.4 SSE 5 6 1024.1 - 1.6 - - 10 - - - -
25/06:00pm 12.3 SSE 6 8 1023.9 - 1.6 - Mostly clear 10 - - - -
25/05:30pm 13.0 S 9 10 1023.7 - 1.6 - - 10 - - - -
25/05:00pm 13.9 S 12 16 1023.7 - 1.6 - Partly cloudy 10 - - - -
25/04:30pm 14.5 S 11 17 1023.4 - 1.6 - Partly cloudy 10 - - - -
25/04:00pm 14.8 S 11 14 1022.9 - 1.6 - Partly cloudy 10 - - - -
25/03:30pm 14.5 S 13 16 1022.9 - 1.6 - Partly cloudy 10 - - - -
25/03:00pm 14.9 S 10 13 1023.1 - 1.6 - Cloudy 10 - - - -
25/02:30pm 15.0 SSW 10 12 1023.2 - 1.6 - Partly cloudy 10 - - - -
25/02:00pm 15.0 S 8 11 1023.5 - 1.6 - Partly cloudy 10 - - - -
25/01:38pm 14.4 SE 6 8 1023.9 - 1.6 - Partly cloudy 10 - - - -
25/01:30pm 14.1 SE 7 9 1024.0 - 1.6 - Partly cloudy 10 - - - -
25/01:10pm 13.9 SSW 10 15 1024.3 - 0.6 - Partly cloudy 6 - - - -
25/01:00pm 15.5 W 3 6 1024.3 - 0.0 - Partly cloudy 10 - - - -
25/12:30pm 14.2 W 6 7 1024.7 - 0.0 - Partly cloudy 10 - - - -
25/12:15pm 14.0 WSW 8 10 1024.7 - 0.0 - Partly cloudy 10 - - - -
25/12:00pm 13.6 WSW 7 10 1024.7 - 0.0 - Cloudy 6 - - - -
25/11:30am 13.7 SSW 10 14 1025.0 - 0.0 - Partly cloudy 4 - - - -
25/11:24am 14.1 SSW 11 15 1025.0 - 0.0 - Partly cloudy 7 - - - -
25/11:00am 16.0 SSW 7 12 1024.8 - 0.0 - Partly cloudy 10 - - - -
25/10:30am 15.6 SSW 9 13 1025.0 - 0.0 - Partly cloudy 10 - - - -
25/10:00am 14.8 WSW 6 9 1025.0 - 0.0 - Partly cloudy 10 - - - -
25/09:30am 13.7 WSW 6 8 1024.5 - 0.0 - Cloudy 10 - - - -
25/09:00am 11.3 WNW 5 7 1024.2 - 0.2 - Cloudy 10 - - - -
25/08:30am 10.8 NW 6 7 1024.3 - 0.2 - Partly cloudy 10 - - - -
25/08:00am 10.3 NW 6 7 1024.1 - 0.2 - Partly cloudy 10 - - - -
25/07:30am 10.7 NW 5 7 1023.4 - 0.2 - Partly cloudy 10 - - - -
25/07:00am 11.4 WNW 4 5 1022.7 - 0.2 - Cloudy 10 - - - -
25/06:30am 11.5 WNW 5 5 1022.5 - 0.2 - Cloudy 10 - - - -
25/06:00am 11.6 WNW 4 5 1022.4 - 0.2 - Cloudy 10 - - - -
25/05:30am 11.9 NW 5 6 1022.4 - 0.2 - Cloudy 10 - - - -
25/05:00am 12.6 W 5 6 1022.3 - 0.2 - Cloudy 10 - - - -
25/04:30am 13.2 SSW 6 9 1022.4 - 0.2 - Partly cloudy 10 - - - -
25/04:00am 12.2 SW 5 7 1022.5 - 0.2 - Cloudy 10 - - - -
25/03:30am 12.6 WSW 5 10 1022.6 - 0.2 - Cloudy 10 - - - -
25/03:00am 12.4 SSW 6 7 1022.6 - 0.2 - Mostly cloudy 10 - - - -
25/02:30am 11.8 SSW 7 8 1022.5 - 0.2 - Cloudy 10 - - - -
25/02:00am 11.2 SSW 8 10 1022.6 - 0.2 - Cloudy 10 - - - -
25/01:30am 10.3 SSW 8 9 1022.5 - 0.2 - Cloudy 10 - - - -
25/01:00am 10.1 SW 7 8 1022.6 - 0.2 - Cloudy 10 - - - -
25/12:30am 8.0 SW 4 6 1022.8 - 0.2 - Partly cloudy 10 - - - -
25/12:00am 9.0 SSW 5 6 1022.9 - 0.2 - - 10 - - - -
 
Date/Time
CST
Temp
°C
Wind Pressure Rain since
9am
mm
Weather Cloud Vis
km
Sea
Height
m
Swell
Dir  Spd
kts
Gust
kts
hPa Trend Height
m
Period
s
Dir
24/11:30pm 9.2 SSW 7 9 1022.9 - 0.2 - Partly cloudy 10 - - - -
24/11:00pm 9.2 SSW 8 9 1023.0 - 0.2 - - 10 - - - -
24/10:30pm 8.7 SW 5 6 1023.0 - 0.2 - - 10 - - - -
24/10:00pm 9.9 SW 7 7 1022.9 - 0.2 - - 10 - - - -
24/09:30pm 9.6 SSW 7 9 1022.8 - 0.2 - - 10 - - - -
24/09:00pm 9.5 S 7 9 1022.5 - 0.2 - Partly cloudy 10 - - - -
24/08:30pm 9.9 S 7 8 1022.5 - 0.2 - - 10 - - - -
24/08:00pm 9.9 SSW 8 9 1022.2 - 0.2 - - 10 - - - -
24/07:30pm 11.0 SSW 7 9 1022.0 - 0.2 - - 10 - - - -
24/07:00pm 11.8 S 9 11 1021.6 - 0.2 - - 10 - - - -
24/06:30pm 12.5 S 9 9 1021.4 - 0.2 - - 10 - - - -
24/06:00pm 13.8 S 8 9 1021.3 - 0.2 - Partly cloudy 10 - - - -
24/05:30pm 15.2 S 11 13 1021.2 - 0.2 - Partly cloudy 10 - - - -
24/05:00pm 16.3 S 10 13 1021.2 - 0.2 - Partly cloudy 10 - - - -
24/04:30pm 17.1 S 11 15 1021.1 - 0.2 - Partly cloudy 10 - - - -
24/04:00pm 17.4 S 12 15 1021.2 - 0.2 - Partly cloudy 10 - - - -
24/03:30pm 16.6 S 13 17 1020.9 - 0.2 - Partly cloudy 10 - - - -
24/03:00pm 17.9 SSE 11 16 1021.0 - 0.2 - Cloudy 10 - - - -
24/02:30pm 17.5 SSE 13 17 1020.9 - 0.2 - Partly cloudy 10 - - - -
24/02:00pm 18.1 S 13 18 1020.9 - 0.2 - Partly cloudy 10 - - - -
24/01:30pm 18.5 S 11 15 1021.3 - 0.0 - Partly cloudy 10 - - - -
24/01:00pm 18.7 S 12 16 1021.6 - 0.0 - Partly cloudy 10 - - - -
24/12:30pm 18.2 S 12 15 1021.9 - 0.0 - Partly cloudy 10 - - - -
24/12:00pm 18.5 S 11 15 1022.2 - 0.0 - Mostly clear 10 - - - -
24/11:30am 16.7 S 10 14 1022.4 - 0.0 - Partly cloudy 10 - - - -
24/11:00am 14.5 WSW 6 8 1022.7 - 0.0 - Partly cloudy 10 - - - -
24/10:30am 13.2 WNW 6 7 1022.9 - 0.0 - Partly cloudy 10 - - - -
24/10:00am 11.2 WNW 6 9 1022.8 - 0.0 - - 10 - - - -
24/09:40am 10.4 WNW 5 7 1022.7 - 0.0 - Partly cloudy 10 - - - -
24/09:30am 10.4 WNW 5 6 1022.5 - 0.0 - Partly cloudy 7 - - - -
24/09:00am 8.6 NW 6 7 1022.3 - 0.4 - Mostly cloudy 0.5 - - - -
24/08:30am 6.3 NW 6 7 1022.0 - 0.4 - Partly cloudy 0.8 - - - -
24/08:00am 5.8 NW 7 8 1021.7 - 0.4 - Partly cloudy 0.4 - - - -
24/07:36am 5.4 NNW 7 7 1021.4 - 0.4 - Partly cloudy 0.3 - - - -
24/07:30am 5.1 NNW 7 7 1021.3 - 0.4 - Partly cloudy 0.6 - - - -
24/07:07am 5.8 NW 6 7 1021.0 - 0.4 - Partly cloudy 7 - - - -
24/07:01am 5.9 NW 6 7 1020.9 - 0.4 - Partly cloudy 10 - - - -
24/07:00am 6.0 WNW 6 7 1020.9 - 0.4 - Partly cloudy 10 - - - -
24/06:30am 5.6 NW 7 8 1020.9 - 0.4 - Partly cloudy 6 - - - -
24/06:00am 5.6 NW 7 7 1020.7 - 0.4 - - 0.4 - - - -
24/05:30am 6.1 WNW 8 9 1020.3 - 0.4 - - 1 - - - -
24/05:00am 6.1 NW 7 7 1020.2 - 0.4 - - 0.5 - - - -
24/04:30am 6.5 WNW 7 7 1020.3 - 0.4 - Partly cloudy 0.5 - - - -
24/04:00am 6.7 WNW 7 7 1020.4 - 0.4 - - 2 - - - -
24/03:30am 7.3 NW 6 7 1020.5 - 0.2 - Partly cloudy 0.9 - - - -
24/03:00am 7.7 WNW 7 7 1020.5 - 0.2 - - 0.5 - - - -
24/02:30am 8.0 WNW 7 7 1020.3 - 0.2 - - 2 - - - -
24/02:00am 8.4 WNW 6 7 1020.4 - 0.2 - Partly cloudy 2 - - - -
24/01:30am 8.0 WNW 8 8 1020.4 - 0.2 - - 0.5 - - - -
24/01:00am 8.1 WNW 7 7 1020.5 - 0.2 - - 0.5 - - - -
24/12:30am 8.8 WNW 7 7 1020.4 - 0.2 - - 0.4 - - - -
24/12:00am 8.7 NW 7 7 1020.6 - 0.2 - - 0.3 - - - -
 
Date/Time
CST
Temp
°C
Wind Pressure Rain since
9am
mm
Weather Cloud Vis
km
Sea
Height
m
Swell
Dir  Spd
kts
Gust
kts
hPa Trend Height
m
Period
s
Dir
23/11:30pm 9.3 NW 7 7 1020.8 - 0.2 - - 7 - - - -
23/11:20pm 9.4 NW 6 7 1020.9 - 0.2 - - 10 - - - -
23/11:00pm 9.2 NW 6 7 1020.9 - 0.2 - Partly cloudy 2 - - - -
23/10:30pm 10.0 WNW 5 6 1020.8 - 0.2 - Partly cloudy 1 - - - -
23/10:00pm 9.9 WNW 5 5 1020.6 - 0.2 - - 1 - - - -
23/09:30pm 10.6 W 4 5 1020.5 - 0.2 - Partly cloudy 0.6 - - - -
23/09:15pm 12.1 WSW 7 7 1020.8 - 0.2 - - 7 - - - -
23/09:00pm 12.8 WSW 7 8 1020.6 - 0.2 - Mostly clear 9 - - - -
23/08:30pm 13.4 WSW 6 7 1020.3 - 0.2 - - 10 - - - -
23/08:00pm 14.0 WSW 7 8 1020.1 - 0.2 - - 10 - - - -
23/07:30pm 14.3 WSW 6 7 1019.8 - 0.2 - - 10 - - - -
23/07:00pm 14.8 WSW 7 9 1020.0 - 0.2 - - 10 - - - -
23/06:30pm 15.2 WSW 7 9 1019.2 - 0.2 - - 10 - - - -
23/06:00pm 15.6 SW 8 11 1018.6 - 0.2 - Mostly cloudy 10 - - - -
23/05:30pm 16.3 WSW 9 12 1019.1 - 0.2 - - 10 - - - -
23/05:00pm 16.7 WSW 9 13 1018.9 - 0.2 - Partly cloudy 10 - - - -
23/04:30pm 17.0 WSW 10 13 1018.8 - 0.2 - - 10 - - - -
23/04:00pm 17.4 SW 13 16 1018.3 - 0.2 - - 10 - - - -
23/03:30pm 17.5 SW 13 17 1018.1 - 0.0 - - 10 - - - -
23/03:00pm 18.1 WSW 13 17 1018.0 - 0.0 - Cloudy 10 - - - -
23/02:30pm 18.8 SW 12 16 1017.7 - 0.0 - - 10 - - - -
23/02:00pm 18.4 WSW 12 15 1018.0 - 0.0 - - 10 - - - -
23/01:30pm 18.6 WSW 10 14 1017.8 - 0.0 - - 10 - - - -
23/01:00pm 18.3 WSW 9 12 1018.4 - 0.0 - - 10 - - - -
23/12:30pm 18.7 WSW 9 11 1018.8 - 0.0 - - 10 - - - -
23/12:00pm 18.7 WSW 9 12 1019.0 - 0.0 - Partly cloudy 10 - - - -
23/11:30am 17.2 W 7 9 1019.4 - 0.0 - - 10 - - - -
23/11:00am 15.4 NW 6 8 1020.0 - 0.0 - - 10 - - - -
23/10:30am 14.5 WNW 6 8 1019.9 - 0.0 - - 10 - - - -
23/10:00am 13.6 WNW 7 10 1019.7 - 0.0 - - 10 - - - -
23/09:30am 12.7 WNW 8 10 1019.6 - 0.0 - Partly cloudy 10 - - - -
23/09:00am 12.4 WNW 8 9 1019.6 - 1.2 Recent precip. Cloudy 10 - - - -
23/08:30am 12.6 W 10 14 1019.6 - 0.6 - Partly cloudy 10 - - - -
23/08:00am 13.7 WNW 8 11 1018.7 - 0.4 - Partly cloudy 10 - - - -
23/07:30am 14.4 WNW 11 14 1018.9 - 0.2 - Cloudy 10 - - - -
23/07:00am 14.4 NW 10 14 1018.1 - 0.2 - Partly cloudy 10 - - - -
23/06:30am 14.1 NNW 9 11 1018.0 - 0.0 - Cloudy 10 - - - -

Other Formats:

Comma delimited format used in spreadsheet applications
http://www.bom.gov.au/fwo/IDS60701/IDS60701.94651.axf

JavaScript Object Notation format (JSON) in row-major order
http://www.bom.gov.au/fwo/IDS60701/IDS60701.94651.json